createdAt,value
2022-08-17T00:02:18.087Z,7.15
2022-08-17T00:04:51.686Z,8.27
2022-08-17T00:07:18.318Z,8.05
2022-08-17T00:09:45.035Z,6.72
2022-08-17T00:12:41.444Z,6.75
2022-08-17T00:14:58.343Z,7.97
2022-08-17T00:17:25.497Z,7.40
2022-08-17T00:19:52.215Z,8.00
2022-08-17T00:22:34.464Z,8.13
2022-08-17T00:25:07.368Z,9.00
2022-08-17T00:27:35.151Z,10.18
2022-08-17T00:30:01.864Z,9.25
2022-08-17T00:33:13.884Z,7.60
2022-08-17T00:35:18.362Z,8.45
2022-08-17T00:37:45.365Z,7.65
2022-08-17T00:40:15.401Z,8.90
2022-08-17T00:42:43.939Z,7.57
2022-08-17T00:45:14.227Z,9.63
2022-08-17T00:47:41.689Z,9.48
2022-08-17T00:50:12.594Z,6.68
2022-08-17T00:52:49.467Z,7.47
2022-08-17T00:55:16.408Z,7.68
2022-08-17T00:57:46.812Z,9.05
2022-08-17T01:00:30.177Z,7.47
2022-08-17T01:03:06.305Z,11.20
2022-08-17T01:05:35.119Z,8.63
2022-08-17T01:08:02.605Z,7.78
2022-08-17T01:10:58.416Z,7.22
2022-08-17T01:13:40.158Z,7.60
2022-08-17T01:16:29.633Z,12.30
2022-08-17T01:19:09.211Z,7.90
2022-08-17T01:21:46.724Z,7.47
2022-08-17T01:24:13.708Z,6.90
2022-08-17T01:26:43.175Z,7.65
2022-08-17T01:29:11.632Z,7.13
2022-08-17T01:31:45.093Z,7.78
2022-08-17T01:34:14.846Z,9.00
2022-08-17T01:36:44.619Z,10.70
2022-08-17T01:39:23.358Z,8.40
2022-08-17T01:41:53.447Z,8.75
2022-08-17T01:44:21.987Z,8.88
2022-08-17T01:46:48.854Z,10.77
2022-08-17T01:49:15.855Z,8.02
2022-08-17T01:51:42.636Z,9.50
2022-08-17T01:54:13.509Z,9.07
2022-08-17T01:56:42.459Z,9.95
2022-08-17T01:59:10.303Z,7.95
2022-08-17T02:01:37.996Z,8.55
2022-08-17T02:04:06.507Z,8.07
2022-08-17T02:06:52.440Z,8.77
2022-08-17T02:09:23.342Z,7.63
2022-08-17T02:11:50.824Z,8.27
2022-08-17T02:14:18.021Z,9.38
2022-08-17T02:16:44.728Z,9.40
2022-08-17T02:19:15.886Z,8.93
2022-08-17T02:21:45.943Z,8.40
2022-08-17T02:24:17.869Z,9.00
2022-08-17T02:27:05.255Z,7.72
2022-08-17T02:29:32.481Z,11.60
2022-08-17T02:32:00.266Z,7.57
2022-08-17T02:34:27.532Z,8.73
2022-08-17T02:36:54.532Z,9.50
2022-08-17T02:39:21.691Z,8.52
2022-08-17T02:41:48.883Z,10.48
2022-08-17T02:44:38.998Z,8.27
2022-08-17T02:47:02.395Z,9.77
2022-08-17T02:49:29.015Z,11.60
2022-08-17T02:51:58.888Z,8.57
2022-08-17T02:54:40.659Z,7.40
2022-08-17T02:57:09.555Z,9.82
2022-08-17T02:59:36.343Z,9.82
2022-08-17T03:02:04.272Z,9.48
2022-08-17T03:04:31.738Z,8.40
2022-08-17T03:07:02.509Z,8.38
2022-08-17T03:09:29.200Z,8.65
2022-08-17T03:12:03.269Z,9.93
2022-08-17T03:14:32.349Z,9.18
2022-08-17T03:16:59.344Z,10.13
2022-08-17T03:19:26.120Z,11.52
2022-08-17T03:21:55.205Z,11.70
2022-08-17T03:24:22.240Z,12.30
2022-08-17T03:26:55.767Z,11.20
2022-08-17T03:29:22.481Z,12.13
2022-08-17T03:31:50.079Z,12.20
2022-08-17T03:34:17.894Z,10.68
2022-08-17T03:36:45.016Z,10.65
2022-08-17T03:39:11.771Z,11.82
2022-08-17T03:41:39.093Z,12.27
2022-08-17T03:44:05.941Z,14.30
2022-08-17T03:46:51.545Z,12.07
2022-08-17T03:49:36.712Z,12.07
2022-08-17T03:52:22.549Z,8.82
2022-08-17T03:55:07.783Z,11.93
2022-08-17T03:57:34.576Z,13.15
2022-08-17T04:00:01.255Z,10.45
2022-08-17T04:02:32.977Z,10.77
2022-08-17T04:04:59.957Z,11.97
2022-08-17T04:07:29.078Z,13.85
2022-08-17T04:09:57.961Z,11.45
2022-08-17T04:12:25.726Z,10.90
2022-08-17T04:14:54.656Z,11.40
2022-08-17T04:17:28.516Z,11.20
2022-08-17T04:19:55.892Z,10.02
2022-08-17T04:22:30.189Z,11.65
2022-08-17T04:25:16.094Z,11.82
2022-08-17T04:27:42.835Z,12.32
2022-08-17T04:30:10.541Z,9.40
2022-08-17T04:33:06.089Z,11.77
2022-08-17T04:35:52.131Z,14.73
2022-08-17T04:38:21.663Z,10.63
2022-08-17T04:41:07.545Z,10.77
2022-08-17T04:43:35.688Z,10.52
2022-08-17T04:46:09.090Z,11.77
2022-08-17T04:48:38.882Z,13.30
2022-08-17T04:51:18.187Z,13.20
2022-08-17T04:53:53.967Z,14.75
2022-08-17T04:56:23.372Z,12.93
2022-08-17T04:58:51.929Z,11.77
2022-08-17T05:01:24.137Z,12.15
2022-08-17T05:03:56.296Z,11.85
2022-08-17T05:06:23.230Z,11.93
2022-08-17T05:08:50.165Z,12.70
2022-08-17T05:11:17.399Z,15.35
2022-08-17T05:13:44.770Z,11.07
2022-08-17T05:16:12.074Z,13.75
2022-08-17T05:18:39.123Z,13.85
2022-08-17T05:21:06.909Z,10.50
2022-08-17T05:23:41.711Z,12.02
2022-08-17T05:26:19.880Z,14.13
2022-08-17T05:28:59.526Z,14.27
2022-08-17T05:31:28.795Z,13.98
2022-08-17T05:33:55.577Z,18.90
2022-08-17T05:36:41.640Z,14.48
2022-08-17T05:39:13.443Z,17.95
2022-08-17T05:41:45.591Z,14.80
2022-08-17T05:44:12.215Z,18.83
2022-08-17T05:46:43.558Z,15.45
2022-08-17T05:49:11.929Z,14.95
2022-08-17T05:52:07.832Z,18.45
2022-08-17T05:54:34.522Z,13.30
2022-08-17T05:57:20.827Z,13.68
2022-08-17T05:59:56.930Z,15.60
2022-08-17T06:02:49.035Z,16.00
2022-08-17T06:05:46.381Z,15.23
2022-08-17T06:08:37.897Z,16.75
2022-08-17T06:11:26.372Z,17.25
2022-08-17T06:14:06.935Z,15.45
2022-08-17T06:16:41.406Z,33.67
2022-08-17T06:19:14.013Z,20.58
2022-08-17T06:21:46.753Z,24.60
2022-08-17T06:24:42.001Z,20.02
2022-08-17T06:27:37.513Z,17.77
2022-08-17T06:30:12.571Z,14.60
2022-08-17T06:32:43.695Z,14.82
2022-08-17T06:35:14.080Z,10.07
2022-08-17T06:37:59.434Z,16.00
2022-08-17T06:40:59.285Z,13.25
2022-08-17T06:43:26.242Z,14.93
2022-08-17T06:46:07.038Z,13.50
2022-08-17T06:48:39.876Z,12.15
2022-08-17T06:51:18.393Z,15.63
2022-08-17T06:54:05.520Z,15.57
2022-08-17T06:56:54.042Z,13.05
2022-08-17T06:59:54.151Z,16.70
2022-08-17T07:02:51.065Z,16.73
2022-08-17T07:05:23.123Z,14.05
2022-08-17T07:08:40.436Z,10.75
2022-08-17T07:11:13.402Z,14.38
2022-08-17T07:14:15.182Z,14.55
2022-08-17T07:16:50.768Z,12.70
2022-08-17T07:19:22.520Z,11.40
2022-08-17T07:24:47.275Z,16.33
2022-08-17T07:27:17.187Z,11.85
2022-08-17T07:30:10.236Z,14.95
2022-08-17T07:32:47.595Z,14.93
2022-08-17T07:35:44.016Z,14.60
2022-08-17T07:38:26.922Z,10.95
2022-08-17T07:41:04.395Z,13.63
2022-08-17T07:43:39.951Z,12.68
2022-08-17T07:46:53.755Z,11.43
2022-08-17T07:49:22.822Z,11.40
2022-08-17T07:51:50.468Z,11.60
2022-08-17T07:54:22.952Z,12.07
2022-08-17T07:56:57.416Z,14.70
2022-08-17T07:59:33.349Z,10.00
2022-08-17T08:02:03.743Z,21.67
2022-08-17T08:04:59.613Z,10.93
2022-08-17T08:07:40.088Z,13.15
2022-08-17T08:10:06.960Z,7.18
2022-08-17T08:12:42.610Z,10.05
2022-08-17T08:15:19.635Z,10.88
2022-08-17T08:17:53.488Z,7.53
2022-08-17T08:20:51.884Z,9.30
2022-08-17T08:23:25.743Z,5.97
2022-08-17T08:26:07.420Z,8.23
2022-08-17T08:28:37.000Z,8.25
2022-08-17T08:31:24.329Z,7.43
2022-08-17T08:34:59.015Z,6.07
2022-08-17T08:37:16.307Z,7.55
2022-08-17T08:39:53.336Z,5.68
2022-08-17T08:42:23.421Z,5.15
2022-08-17T08:45:08.260Z,5.83
2022-08-17T08:47:53.946Z,5.13
2022-08-17T08:50:37.541Z,5.43
2022-08-17T08:53:42.590Z,4.35
2022-08-17T08:56:19.080Z,4.00
2022-08-17T08:59:07.270Z,6.70
2022-08-17T09:01:51.251Z,6.20
2022-08-17T09:04:29.900Z,7.35
2022-08-17T09:07:11.465Z,5.38
2022-08-17T09:09:48.549Z,4.80
2022-08-17T09:12:32.328Z,4.00
2022-08-17T09:15:12.959Z,5.13
2022-08-17T09:19:02.745Z,5.30
2022-08-17T09:21:14.472Z,4.68
2022-08-17T09:24:33.568Z,5.35
2022-08-17T09:27:23.709Z,4.70
2022-08-17T09:29:57.863Z,5.43
2022-08-17T09:32:55.358Z,4.53
2022-08-17T09:35:37.361Z,7.47
2022-08-17T09:38:24.040Z,7.80
2022-08-17T09:41:05.253Z,10.00
2022-08-17T09:46:08.974Z,4.22
2022-08-17T09:48:42.926Z,6.70
2022-08-17T09:51:12.182Z,6.53
2022-08-17T09:53:39.619Z,7.60
2022-08-17T09:56:15.260Z,4.80
2022-08-17T09:59:05.015Z,5.47
2022-08-17T10:01:36.352Z,7.10
2022-08-17T10:04:29.816Z,5.53
2022-08-17T10:07:15.366Z,7.97
2022-08-17T10:09:56.096Z,4.88
2022-08-17T10:12:40.360Z,5.30
2022-08-17T10:17:59.357Z,4.22
2022-08-17T10:20:30.175Z,5.82
2022-08-17T10:23:21.629Z,4.93
2022-08-17T10:26:04.832Z,5.13
2022-08-17T10:28:39.414Z,4.93
2022-08-17T10:34:41.502Z,6.35
2022-08-17T10:37:40.564Z,3.90
2022-08-17T10:40:10.048Z,6.20
2022-08-17T10:42:50.647Z,6.07
2022-08-17T10:45:26.684Z,5.32
2022-08-17T10:48:04.771Z,5.35
2022-08-17T10:50:59.780Z,3.88
2022-08-17T10:53:32.334Z,6.20
2022-08-17T10:56:38.392Z,5.65
2022-08-17T10:59:05.661Z,4.45
2022-08-17T11:01:32.358Z,3.70
2022-08-17T11:04:07.485Z,3.70
2022-08-17T11:06:47.578Z,5.70
2022-08-17T11:09:38.886Z,6.97
2022-08-17T11:12:38.236Z,5.47
2022-08-17T11:15:26.482Z,5.53
2022-08-17T11:18:11.516Z,3.53
2022-08-17T11:21:20.413Z,5.68
2022-08-17T11:24:30.564Z,3.88
2022-08-17T11:30:01.506Z,4.53
2022-08-17T11:32:31.886Z,4.10
2022-08-17T11:35:14.103Z,3.33
2022-08-17T11:37:49.708Z,3.50
2022-08-17T11:40:37.629Z,5.28
2022-08-17T11:43:07.579Z,4.72
2022-08-17T11:45:36.927Z,5.72
2022-08-17T11:48:46.281Z,3.95
2022-08-17T11:51:33.812Z,4.27
2022-08-17T11:54:31.718Z,3.97
2022-08-17T11:56:59.186Z,4.22
2022-08-17T11:59:35.967Z,3.15
2022-08-17T12:02:35.154Z,4.07
2022-08-17T12:05:11.878Z,4.77
2022-08-17T12:08:18.430Z,3.85
2022-08-17T12:11:00.479Z,5.93
2022-08-17T12:13:37.055Z,6.50
2022-08-17T12:16:08.269Z,4.93
2022-08-17T12:18:37.578Z,4.15
2022-08-17T12:21:07.030Z,3.20
2022-08-17T12:23:48.422Z,4.72
2022-08-17T12:26:19.933Z,3.53
2022-08-17T12:28:55.911Z,3.30
2022-08-17T12:31:31.027Z,4.05
2022-08-17T12:34:00.374Z,4.85
2022-08-17T12:36:28.565Z,3.17
2022-08-17T12:39:14.023Z,4.57
2022-08-17T12:41:47.932Z,3.10
2022-08-17T12:44:20.950Z,5.40
2022-08-17T12:47:21.075Z,4.80
2022-08-17T12:49:51.676Z,3.58
2022-08-17T12:52:25.987Z,3.25
2022-08-17T12:55:02.392Z,3.40
2022-08-17T12:57:38.242Z,3.70
2022-08-17T13:00:10.835Z,3.25
2022-08-17T13:02:46.478Z,6.45
2022-08-17T13:05:37.233Z,4.57
2022-08-17T13:08:19.888Z,3.97
2022-08-17T13:11:02.049Z,4.53
2022-08-17T13:13:33.016Z,4.53
2022-08-17T13:16:14.807Z,3.42
2022-08-17T13:18:55.832Z,3.30
2022-08-17T13:21:30.330Z,3.58
2022-08-17T13:24:11.432Z,3.55
2022-08-17T13:27:07.820Z,3.10
2022-08-17T13:29:39.074Z,3.63
2022-08-17T13:32:13.412Z,4.20
2022-08-17T13:35:13.103Z,2.60
2022-08-17T13:37:42.639Z,3.23
2022-08-17T13:40:09.406Z,5.47
2022-08-17T13:42:51.741Z,2.70
2022-08-17T13:45:36.483Z,3.05
2022-08-17T13:48:30.287Z,2.88
2022-08-17T13:50:56.926Z,3.03
2022-08-17T13:53:31.363Z,2.78
2022-08-17T13:56:07.385Z,3.47
2022-08-17T13:58:56.277Z,3.38
2022-08-17T14:01:32.681Z,5.35
2022-08-17T14:04:02.316Z,3.55
2022-08-17T14:06:51.819Z,3.17
2022-08-17T14:09:37.012Z,2.78
2022-08-17T14:12:08.932Z,9.75
2022-08-17T14:14:36.323Z,3.13
2022-08-17T14:17:03.659Z,4.20
2022-08-17T14:19:30.643Z,2.63
2022-08-17T14:21:59.775Z,2.60
2022-08-17T14:24:41.237Z,3.17
2022-08-17T14:27:11.917Z,4.20
2022-08-17T14:29:41.115Z,3.75
2022-08-17T14:32:19.044Z,3.22
2022-08-17T14:34:47.057Z,3.10
2022-08-17T14:37:13.739Z,4.68
2022-08-17T14:39:40.499Z,6.47
2022-08-17T14:42:08.467Z,4.40
2022-08-17T14:44:35.140Z,3.15
2022-08-17T14:47:01.818Z,3.17
2022-08-17T14:49:30.236Z,5.20
2022-08-17T14:51:57.522Z,3.60
2022-08-17T14:54:33.975Z,4.18
2022-08-17T14:57:23.639Z,5.78
2022-08-17T14:59:53.219Z,4.22
2022-08-17T15:02:29.425Z,4.18
2022-08-17T15:05:03.185Z,4.18
2022-08-17T15:07:30.114Z,4.10
2022-08-17T15:09:58.728Z,4.60
2022-08-17T15:12:32.369Z,3.30
2022-08-17T15:15:00.857Z,3.67
2022-08-17T15:17:44.298Z,5.35
2022-08-17T15:20:21.073Z,3.58
2022-08-17T15:22:49.809Z,2.63
2022-08-17T15:25:19.218Z,3.58
2022-08-17T15:27:46.283Z,3.35
2022-08-17T15:30:13.769Z,4.05
2022-08-17T15:32:50.896Z,2.45
2022-08-17T15:35:27.407Z,4.30
2022-08-17T15:38:06.222Z,3.78
2022-08-17T15:40:39.205Z,3.80
2022-08-17T15:43:12.795Z,2.80
2022-08-17T15:45:40.038Z,4.00
2022-08-17T15:48:07.529Z,6.70
2022-08-17T15:50:34.744Z,5.53
2022-08-17T15:53:03.565Z,2.72
2022-08-17T15:55:32.074Z,3.03
2022-08-17T15:57:59.604Z,2.70
2022-08-17T16:00:29.180Z,3.47
2022-08-17T16:03:45.398Z,2.55
2022-08-17T16:05:46.624Z,3.53
2022-08-17T16:08:18.541Z,3.20
2022-08-17T16:10:48.212Z,3.03
2022-08-17T16:13:17.271Z,3.33
2022-08-17T16:15:49.737Z,2.80
2022-08-17T16:18:26.442Z,4.30
2022-08-17T16:20:53.472Z,3.55
2022-08-17T16:23:20.441Z,2.70
2022-08-17T16:25:52.782Z,2.58
2022-08-17T16:28:21.860Z,4.55
2022-08-17T16:30:48.565Z,2.60
2022-08-17T16:33:16.694Z,4.05
2022-08-17T16:35:43.431Z,4.90
2022-08-17T16:38:10.919Z,3.58
2022-08-17T16:40:38.000Z,3.35
2022-08-17T16:43:10.551Z,3.45
2022-08-17T16:45:42.132Z,3.58
2022-08-17T16:48:13.718Z,3.58
2022-08-17T16:50:40.476Z,2.58
2022-08-17T16:53:16.502Z,4.65
2022-08-17T16:55:48.083Z,7.20
2022-08-17T16:58:15.624Z,2.40
2022-08-17T17:00:44.187Z,2.75
2022-08-17T17:03:20.659Z,4.05
2022-08-17T17:05:59.728Z,3.35
2022-08-17T17:08:49.007Z,3.08
2022-08-17T17:11:23.085Z,4.30
2022-08-17T17:13:56.617Z,5.00
2022-08-17T17:16:38.279Z,4.60
2022-08-17T17:19:17.861Z,3.45
2022-08-17T17:22:15.446Z,4.25
2022-08-17T17:25:33.088Z,3.33
2022-08-17T17:28:30.353Z,6.65
2022-08-17T17:31:05.827Z,5.63
2022-08-17T17:33:47.398Z,3.58
2022-08-17T17:36:25.511Z,5.90
2022-08-17T17:38:59.179Z,4.53
2022-08-17T17:41:34.359Z,5.75
2022-08-17T17:44:12.992Z,7.90
2022-08-17T17:46:50.906Z,5.05
2022-08-17T17:49:18.795Z,3.45
2022-08-17T17:52:09.875Z,3.47
2022-08-17T17:54:40.733Z,5.05
2022-08-17T17:57:26.548Z,5.13
2022-08-17T18:00:09.752Z,2.80
2022-08-17T18:02:57.340Z,3.20
2022-08-17T18:05:44.569Z,8.60
2022-08-17T18:08:41.355Z,6.15
2022-08-17T18:11:25.044Z,5.03
2022-08-17T18:14:22.872Z,5.85
2022-08-17T18:16:55.620Z,6.20
2022-08-17T18:19:25.559Z,5.80
2022-08-17T18:22:02.871Z,7.78
2022-08-17T18:24:35.658Z,6.03
2022-08-17T18:27:20.410Z,5.05
2022-08-17T18:29:48.851Z,6.20
2022-08-17T18:32:37.104Z,7.55
2022-08-17T18:35:10.064Z,6.03
2022-08-17T18:37:47.498Z,7.10
2022-08-17T18:40:18.031Z,7.60
2022-08-17T18:42:46.492Z,5.72
2022-08-17T18:45:30.034Z,5.57
2022-08-17T18:47:56.852Z,4.13
2022-08-17T18:50:41.609Z,5.70
2022-08-17T18:53:26.645Z,8.70
2022-08-17T18:56:16.427Z,6.70
2022-08-17T18:58:50.287Z,6.35
2022-08-17T19:01:19.390Z,8.50
2022-08-17T19:03:46.497Z,6.75
2022-08-17T19:06:34.017Z,7.18
2022-08-17T19:09:01.049Z,5.90
2022-08-17T19:11:31.630Z,5.78
2022-08-17T19:14:11.899Z,13.27
2022-08-17T19:16:49.340Z,6.80
2022-08-17T19:19:23.303Z,5.22
2022-08-17T19:22:02.798Z,6.32
2022-08-17T19:24:33.531Z,4.68
2022-08-17T19:27:18.027Z,6.50
2022-08-17T19:30:08.101Z,4.80
2022-08-17T19:32:35.761Z,4.50
2022-08-17T19:35:05.997Z,7.28
2022-08-17T19:37:44.738Z,5.88
2022-08-17T19:40:51.852Z,5.45
2022-08-17T19:43:34.627Z,5.60
2022-08-17T19:46:28.657Z,5.47
2022-08-17T19:49:02.598Z,6.53
2022-08-17T19:51:38.692Z,4.82
2022-08-17T19:54:26.954Z,5.07
2022-08-17T19:57:12.239Z,5.15
2022-08-17T19:59:56.937Z,4.00
2022-08-17T20:02:41.520Z,6.47
2022-08-17T20:06:08.429Z,9.77
2022-08-17T20:08:27.835Z,6.95
2022-08-17T20:11:01.872Z,5.25
2022-08-17T20:14:07.955Z,4.63
2022-08-17T20:16:34.895Z,5.47
2022-08-17T20:19:08.435Z,4.82
2022-08-17T20:21:41.761Z,4.53
2022-08-17T20:24:20.202Z,3.70
2022-08-17T20:26:59.879Z,7.57
2022-08-17T20:29:39.987Z,3.95
2022-08-17T20:32:18.816Z,4.22
2022-08-17T20:34:47.670Z,5.35
2022-08-17T20:37:17.044Z,5.10
2022-08-17T20:40:03.738Z,5.18
2022-08-17T20:42:33.585Z,7.93
2022-08-17T20:45:26.143Z,6.55
2022-08-17T20:48:17.372Z,7.35
2022-08-17T20:50:43.824Z,5.28
2022-08-17T20:53:15.184Z,6.28
2022-08-17T20:55:52.485Z,6.67
2022-08-17T20:58:23.243Z,7.38
2022-08-17T21:01:00.079Z,5.63
2022-08-17T21:03:39.937Z,6.30
2022-08-17T21:06:19.787Z,6.25
2022-08-17T21:08:55.152Z,11.98
2022-08-17T21:12:03.089Z,5.90
2022-08-17T21:14:54.197Z,7.13
2022-08-17T21:17:36.090Z,6.57
2022-08-17T21:20:21.196Z,7.50
2022-08-17T21:22:53.801Z,6.18
2022-08-17T21:25:48.236Z,7.15
2022-08-17T21:28:38.261Z,6.78
2022-08-17T21:31:43.177Z,4.68
2022-08-17T21:34:15.814Z,7.13
2022-08-17T21:36:44.112Z,5.70
2022-08-17T21:39:17.115Z,6.53
2022-08-17T21:41:52.912Z,7.57
2022-08-17T21:44:21.542Z,4.95
2022-08-17T21:46:50.508Z,7.32
2022-08-17T21:49:21.038Z,4.85
2022-08-17T21:51:51.784Z,5.53
2022-08-17T21:54:38.828Z,5.13
2022-08-17T21:57:14.916Z,5.22
2022-08-17T21:59:42.943Z,4.07
2022-08-17T22:02:19.498Z,4.03
2022-08-17T22:04:57.860Z,4.85
2022-08-17T22:07:47.641Z,4.40
2022-08-17T22:10:33.828Z,6.25
2022-08-17T22:13:17.066Z,5.38
2022-08-17T22:16:28.489Z,5.45
2022-08-17T22:18:53.717Z,7.05
2022-08-17T22:21:22.719Z,6.25
2022-08-17T22:24:06.519Z,7.50
2022-08-17T22:27:00.316Z,7.10
2022-08-17T22:29:47.951Z,6.78
2022-08-17T22:32:42.296Z,6.00
2022-08-17T22:35:35.789Z,5.32
2022-08-17T22:38:20.901Z,5.07
2022-08-17T22:40:57.678Z,5.57
2022-08-17T22:43:28.592Z,7.88
2022-08-17T22:45:59.791Z,6.97
2022-08-17T22:48:29.368Z,6.00
2022-08-17T22:51:12.873Z,9.27
2022-08-17T22:54:34.340Z,7.07
2022-08-17T22:57:23.703Z,5.35
2022-08-17T22:59:54.965Z,8.43
2022-08-17T23:02:33.565Z,7.50
2022-08-17T23:05:16.756Z,7.10
2022-08-17T23:07:46.027Z,5.10
2022-08-17T23:10:14.069Z,7.10
2022-08-17T23:12:40.856Z,7.50
2022-08-17T23:15:16.306Z,8.95
2022-08-17T23:17:44.462Z,6.32
2022-08-17T23:20:15.252Z,9.05
2022-08-17T23:22:51.952Z,8.77
2022-08-17T23:25:44.592Z,7.38
2022-08-17T23:28:11.547Z,5.78
2022-08-17T23:30:46.475Z,8.38
2022-08-17T23:33:21.358Z,6.35
2022-08-17T23:35:48.455Z,7.80
2022-08-17T23:38:15.096Z,7.25
2022-08-17T23:40:41.837Z,5.57
2022-08-17T23:43:24.760Z,7.13
2022-08-17T23:45:59.715Z,5.72
2022-08-17T23:48:35.016Z,6.43
2022-08-17T23:51:05.973Z,6.78
2022-08-17T23:53:34.602Z,9.38
2022-08-17T23:56:09.489Z,9.32
2022-08-17T23:58:38.611Z,8.25
